createdAt,value
2019-02-04T00:01:33.750Z,12.98
2019-02-04T00:03:37.871Z,10.15
2019-02-04T00:05:42.071Z,13.60
2019-02-04T00:07:46.189Z,13.08
2019-02-04T00:09:50.413Z,14.47
2019-02-04T00:11:54.616Z,15.48
2019-02-04T00:13:58.828Z,11.70
2019-02-04T00:16:03.344Z,12.40
2019-02-04T00:18:08.453Z,16.17
2019-02-04T00:20:12.536Z,11.45
2019-02-04T00:22:16.706Z,12.13
2019-02-04T00:24:20.816Z,11.78
2019-02-04T00:26:24.920Z,9.58
2019-02-04T00:28:29.036Z,18.40
2019-02-04T00:30:34.503Z,13.80
2019-02-04T00:32:38.678Z,12.23
2019-02-04T00:34:42.895Z,13.90
2019-02-04T00:36:46.738Z,11.73
2019-02-04T00:38:50.917Z,13.38
2019-02-04T00:40:55.131Z,14.70
2019-02-04T00:42:58.989Z,12.98
2019-02-04T00:45:02.800Z,12.40
2019-02-04T00:47:10.629Z,14.28
2019-02-04T00:49:15.144Z,17.90
2019-02-04T00:51:19.368Z,17.05
2019-02-04T00:53:23.477Z,14.35
2019-02-04T00:55:27.692Z,17.42
2019-02-04T00:57:31.531Z,15.28
2019-02-04T00:59:35.917Z,13.30
2019-02-04T01:01:40.130Z,14.23
2019-02-04T01:03:43.947Z,13.22
2019-02-04T01:05:48.238Z,12.85
2019-02-04T01:07:52.450Z,18.45
2019-02-04T01:09:56.878Z,11.38
2019-02-04T01:12:01.088Z,13.15
2019-02-04T01:14:05.402Z,12.68
2019-02-04T01:16:09.514Z,11.60
2019-02-04T01:18:13.610Z,11.08
2019-02-04T01:20:23.972Z,14.25
2019-02-04T01:22:28.534Z,14.10
2019-02-04T01:24:32.317Z,12.40
2019-02-04T01:26:36.520Z,13.25
2019-02-04T01:28:42.167Z,13.03
2019-02-04T01:30:49.344Z,12.50
2019-02-04T01:32:53.862Z,12.20
2019-02-04T01:34:57.974Z,14.85
2019-02-04T01:37:04.228Z,10.65
2019-02-04T01:39:09.504Z,12.43
2019-02-04T01:41:13.680Z,12.37
2019-02-04T01:43:17.898Z,14.20
2019-02-04T01:45:22.932Z,14.43
2019-02-04T01:47:27.046Z,14.50
2019-02-04T01:49:31.162Z,16.65
2019-02-04T01:51:35.072Z,12.07
2019-02-04T01:53:40.661Z,10.68
2019-02-04T01:55:44.512Z,14.13
2019-02-04T01:57:51.063Z,14.33
2019-02-04T01:59:54.894Z,11.70
2019-02-04T02:01:59.296Z,11.80
2019-02-04T02:04:03.316Z,11.80
2019-02-04T02:06:07.507Z,12.40
2019-02-04T02:08:11.717Z,16.48
2019-02-04T02:10:19.208Z,16.32
2019-02-04T02:12:23.417Z,13.18
2019-02-04T02:14:27.282Z,15.60
2019-02-04T02:16:31.440Z,13.85
2019-02-04T02:18:35.264Z,11.43
2019-02-04T02:20:41.400Z,14.93
2019-02-04T02:22:45.501Z,16.95
2019-02-04T02:24:49.630Z,20.88
2019-02-04T02:26:53.829Z,15.70
2019-02-04T02:28:57.942Z,15.68
2019-02-04T02:31:02.053Z,15.43
2019-02-04T02:33:06.362Z,14.23
2019-02-04T02:35:12.106Z,16.80
2019-02-04T02:37:15.928Z,16.20
2019-02-04T02:39:20.748Z,13.05
2019-02-04T02:41:26.798Z,18.57
2019-02-04T02:43:30.921Z,16.15
2019-02-04T02:45:34.894Z,17.37
2019-02-04T02:47:39.020Z,13.70
2019-02-04T02:49:42.846Z,18.35
2019-02-04T02:51:47.353Z,13.05
2019-02-04T02:53:51.452Z,15.25
2019-02-04T02:55:55.578Z,14.45
2019-02-04T02:57:59.447Z,14.35
2019-02-04T03:00:05.337Z,19.62
2019-02-04T03:02:09.857Z,13.88
2019-02-04T03:04:16.399Z,15.13
2019-02-04T03:06:20.515Z,17.00
2019-02-04T03:08:24.630Z,17.60
2019-02-04T03:10:30.878Z,17.37
2019-02-04T03:12:35.002Z,16.60
2019-02-04T03:14:39.532Z,19.45
2019-02-04T03:16:43.814Z,14.98
2019-02-04T03:18:49.283Z,15.10
2019-02-04T03:20:53.139Z,14.63
2019-02-04T03:22:57.409Z,16.77
2019-02-04T03:25:01.725Z,24.15
2019-02-04T03:27:05.922Z,20.12
2019-02-04T03:29:10.046Z,22.37
2019-02-04T03:31:14.241Z,16.23
2019-02-04T03:33:18.082Z,17.30
2019-02-04T03:35:22.370Z,14.43
2019-02-04T03:37:26.200Z,17.45
2019-02-04T03:39:30.396Z,22.25
2019-02-04T03:41:34.388Z,17.32
2019-02-04T03:43:38.600Z,18.62
2019-02-04T03:45:42.807Z,16.85
2019-02-04T03:47:46.931Z,16.82
2019-02-04T03:49:50.766Z,17.55
2019-02-04T03:51:54.941Z,16.12
2019-02-04T03:53:59.052Z,17.07
2019-02-04T03:56:03.061Z,17.30
2019-02-04T03:58:07.782Z,13.68
2019-02-04T04:00:14.958Z,16.10
2019-02-04T04:02:19.085Z,17.57
2019-02-04T04:04:23.283Z,14.47
2019-02-04T04:06:27.404Z,20.05
2019-02-04T04:08:31.536Z,23.77
2019-02-04T04:10:35.712Z,15.72
2019-02-04T04:12:39.885Z,18.05
2019-02-04T04:14:44.047Z,17.73
2019-02-04T04:16:47.889Z,15.15
2019-02-04T04:18:53.453Z,15.38
2019-02-04T04:20:57.721Z,12.20
2019-02-04T04:23:01.830Z,13.83
2019-02-04T04:25:08.865Z,11.85
2019-02-04T04:27:13.007Z,24.70
2019-02-04T04:29:17.134Z,19.52
2019-02-04T04:31:21.335Z,18.57
2019-02-04T04:33:25.534Z,20.02
2019-02-04T04:35:29.441Z,15.72
2019-02-04T04:37:33.685Z,18.48
2019-02-04T04:39:37.881Z,18.25
2019-02-04T04:41:42.183Z,17.05
2019-02-04T04:43:46.395Z,13.88
2019-02-04T04:45:51.777Z,16.90
2019-02-04T04:47:56.046Z,18.27
2019-02-04T04:50:00.262Z,18.05
2019-02-04T04:52:04.573Z,18.25
2019-02-04T04:54:08.414Z,19.87
2019-02-04T04:56:12.615Z,16.85
2019-02-04T04:58:16.698Z,14.90
2019-02-04T05:00:26.546Z,16.95
2019-02-04T05:02:30.777Z,18.35
2019-02-04T05:04:35.285Z,18.30
2019-02-04T05:06:39.409Z,19.85
2019-02-04T05:08:43.597Z,22.15
2019-02-04T05:10:49.718Z,18.48
2019-02-04T05:12:53.598Z,22.17
2019-02-04T05:14:58.081Z,22.20
2019-02-04T05:17:01.893Z,26.27
2019-02-04T05:19:05.717Z,23.70
2019-02-04T05:21:09.604Z,30.30
2019-02-04T05:23:13.811Z,29.10
2019-02-04T05:25:18.321Z,30.32
2019-02-04T05:27:22.539Z,20.37
2019-02-04T05:29:26.657Z,20.27
2019-02-04T05:31:30.857Z,20.32
2019-02-04T05:33:35.072Z,20.15
2019-02-04T05:35:39.185Z,18.75
2019-02-04T05:37:43.088Z,21.57
2019-02-04T05:39:47.306Z,19.90
2019-02-04T05:41:51.429Z,21.75
2019-02-04T05:43:55.633Z,17.98
2019-02-04T05:45:59.841Z,21.45
2019-02-04T05:48:04.063Z,17.17
2019-02-04T05:50:11.049Z,26.93
2019-02-04T05:52:15.242Z,21.57
2019-02-04T05:54:19.063Z,19.07
2019-02-04T05:56:23.080Z,20.97
2019-02-04T05:58:27.099Z,25.60
2019-02-04T06:00:35.735Z,29.12
2019-02-04T06:02:39.569Z,20.70
2019-02-04T06:04:43.791Z,27.48
2019-02-04T06:06:47.907Z,21.45
2019-02-04T06:08:52.123Z,25.92
2019-02-04T06:10:56.029Z,27.10
2019-02-04T06:13:00.233Z,23.00
2019-02-04T06:15:06.829Z,27.10
2019-02-04T06:17:10.684Z,20.05
2019-02-04T06:19:14.923Z,14.25
2019-02-04T06:21:19.149Z,17.40
2019-02-04T06:23:23.239Z,24.63
2019-02-04T06:25:27.358Z,18.80
2019-02-04T06:27:31.583Z,17.20
2019-02-04T06:29:35.777Z,22.67
2019-02-04T06:31:40.193Z,28.20
2019-02-04T06:33:44.414Z,25.20
2019-02-04T06:35:48.616Z,21.52
2019-02-04T06:37:52.443Z,20.90
2019-02-04T06:39:56.651Z,20.82
2019-02-04T06:42:00.483Z,20.43
2019-02-04T06:44:04.661Z,27.50
2019-02-04T06:46:08.863Z,22.98
2019-02-04T06:48:12.975Z,24.10
2019-02-04T06:50:19.796Z,22.75
2019-02-04T06:52:23.952Z,20.72
2019-02-04T06:54:28.075Z,21.73
2019-02-04T06:56:32.280Z,19.25
2019-02-04T06:58:36.394Z,24.60
2019-02-04T07:00:40.207Z,22.62
2019-02-04T07:02:44.622Z,26.52
2019-02-04T07:04:48.827Z,18.92
2019-02-04T07:06:52.938Z,23.27
2019-02-04T07:08:57.172Z,22.75
2019-02-04T07:11:00.993Z,24.00
2019-02-04T07:13:05.167Z,20.12
2019-02-04T07:15:10.933Z,23.18
2019-02-04T07:17:15.039Z,19.05
2019-02-04T07:19:24.371Z,20.88
2019-02-04T07:21:25.122Z,16.00
2019-02-04T07:23:29.293Z,16.85
2019-02-04T07:25:33.500Z,20.00
2019-02-04T07:27:37.337Z,15.83
2019-02-04T07:29:43.162Z,16.97
2019-02-04T07:31:47.289Z,23.98
2019-02-04T07:33:51.503Z,22.80
2019-02-04T07:35:55.816Z,19.17
2019-02-04T07:37:59.913Z,16.60
2019-02-04T07:40:06.065Z,21.73
2019-02-04T07:42:10.290Z,23.38
2019-02-04T07:44:14.182Z,23.47
2019-02-04T07:46:18.322Z,19.65
2019-02-04T07:48:22.526Z,19.60
2019-02-04T07:50:26.662Z,24.05
2019-02-04T07:52:30.837Z,27.17
2019-02-04T07:54:34.670Z,25.97
2019-02-04T07:56:38.845Z,25.45
2019-02-04T07:58:43.070Z,22.25
2019-02-04T08:00:47.272Z,25.48
2019-02-04T08:02:52.016Z,20.70
2019-02-04T08:04:55.860Z,21.35
2019-02-04T08:06:59.695Z,23.50
2019-02-04T08:09:05.362Z,21.10
2019-02-04T08:11:09.566Z,22.62
2019-02-04T08:13:13.678Z,24.40
2019-02-04T08:15:34.793Z,28.42
2019-02-04T08:17:38.637Z,32.58
2019-02-04T08:19:47.030Z,33.75
2019-02-04T08:21:48.368Z,27.35
2019-02-04T08:23:52.762Z,20.48
2019-02-04T08:25:56.886Z,18.35
2019-02-04T08:28:01.103Z,20.60
2019-02-04T08:30:08.418Z,19.00
2019-02-04T08:32:12.486Z,14.87
2019-02-04T08:34:16.688Z,22.22
2019-02-04T08:36:20.808Z,18.45
2019-02-04T08:38:24.920Z,19.92
2019-02-04T08:40:29.440Z,20.35
2019-02-04T08:42:35.456Z,16.87
2019-02-04T08:44:39.387Z,21.90
2019-02-04T08:46:43.602Z,14.70
2019-02-04T08:48:47.720Z,23.02
2019-02-04T08:50:51.930Z,23.18
2019-02-04T08:52:56.447Z,22.15
2019-02-04T08:55:00.570Z,23.75
2019-02-04T08:57:04.540Z,25.90
2019-02-04T08:59:08.692Z,26.48
2019-02-04T09:01:12.791Z,28.77
2019-02-04T09:03:17.219Z,28.55
2019-02-04T09:05:22.644Z,25.23
2019-02-04T09:07:26.771Z,22.05
2019-02-04T09:09:30.978Z,30.20
2019-02-04T09:11:34.817Z,22.35
2019-02-04T09:13:39.084Z,21.33
2019-02-04T09:15:43.298Z,20.10
2019-02-04T09:17:47.435Z,22.22
2019-02-04T09:19:51.624Z,19.70
2019-02-04T09:21:55.499Z,19.32
2019-02-04T09:23:59.715Z,15.78
2019-02-04T09:26:03.970Z,22.32
2019-02-04T09:28:08.165Z,23.20
2019-02-04T09:30:17.504Z,21.27
2019-02-04T09:32:21.622Z,18.07
2019-02-04T09:34:25.836Z,19.32
2019-02-04T09:36:29.669Z,21.55
2019-02-04T09:38:35.039Z,23.95
2019-02-04T09:40:41.575Z,21.70
2019-02-04T09:42:45.766Z,16.52
2019-02-04T09:44:49.978Z,19.23
2019-02-04T09:46:54.063Z,21.77
2019-02-04T09:48:58.177Z,21.52
2019-02-04T09:51:02.390Z,16.42
2019-02-04T09:53:06.343Z,20.30
2019-02-04T09:55:13.232Z,17.10
2019-02-04T09:57:17.891Z,17.23
2019-02-04T09:59:21.720Z,20.75
2019-02-04T10:01:25.918Z,17.32
2019-02-04T10:03:30.118Z,18.62
2019-02-04T10:05:34.233Z,15.75
2019-02-04T10:07:38.755Z,29.30
2019-02-04T10:09:42.961Z,19.95
2019-02-04T10:11:48.316Z,21.85
2019-02-04T10:13:52.423Z,16.42
2019-02-04T10:15:58.201Z,16.82
2019-02-04T10:18:02.088Z,16.67
2019-02-04T10:20:09.386Z,16.50
2019-02-04T10:22:13.579Z,17.85
2019-02-04T10:24:17.812Z,18.57
2019-02-04T10:26:21.595Z,10.78
2019-02-04T10:28:25.799Z,14.07
2019-02-04T10:30:30.367Z,16.37
2019-02-04T10:32:34.198Z,15.23
2019-02-04T10:34:38.329Z,15.68
2019-02-04T10:36:42.533Z,19.00
2019-02-04T10:38:46.653Z,18.55
2019-02-04T10:40:51.096Z,17.27
2019-02-04T10:42:55.046Z,17.02
2019-02-04T10:44:59.229Z,18.98
2019-02-04T10:47:03.045Z,16.12
2019-02-04T10:49:06.853Z,13.35
2019-02-04T10:51:11.459Z,15.03
2019-02-04T10:53:15.634Z,16.48
2019-02-04T10:55:19.844Z,16.00
2019-02-04T10:57:23.702Z,13.95
2019-02-04T10:59:27.870Z,13.50
2019-02-04T11:01:32.590Z,14.43
2019-02-04T11:03:36.809Z,16.65
2019-02-04T11:05:45.070Z,9.55
2019-02-04T11:07:48.904Z,16.95
2019-02-04T11:09:53.162Z,10.35
2019-02-04T11:11:57.321Z,12.73
2019-02-04T11:14:01.610Z,17.10
2019-02-04T11:16:06.287Z,13.65
2019-02-04T11:18:10.991Z,16.23
2019-02-04T11:20:23.549Z,20.55
2019-02-04T11:22:27.364Z,14.30
2019-02-04T11:24:31.177Z,15.25
2019-02-04T11:26:35.372Z,14.28
2019-02-04T11:28:39.539Z,13.40
2019-02-04T11:30:46.409Z,16.30
2019-02-04T11:32:51.060Z,13.78
2019-02-04T11:34:55.155Z,12.25
2019-02-04T11:36:59.701Z,12.07
2019-02-04T11:39:05.896Z,12.50
2019-02-04T11:41:10.102Z,15.50
2019-02-04T11:43:14.344Z,14.10
2019-02-04T11:45:18.668Z,14.75
2019-02-04T11:47:23.112Z,16.37
2019-02-04T11:49:27.293Z,16.32
2019-02-04T11:51:31.419Z,19.17
2019-02-04T11:53:35.519Z,12.75
2019-02-04T11:55:39.715Z,12.50
2019-02-04T11:57:46.449Z,13.75
2019-02-04T11:59:50.299Z,13.48
2019-02-04T12:01:54.628Z,14.18
2019-02-04T12:03:58.817Z,13.35
2019-02-04T12:06:02.962Z,13.20
2019-02-04T12:08:07.253Z,13.00
2019-02-04T12:10:14.426Z,14.05
2019-02-04T12:12:18.648Z,12.68
2019-02-04T12:14:22.484Z,14.35
2019-02-04T12:16:26.308Z,13.38
2019-02-04T12:18:30.573Z,9.83
2019-02-04T12:20:34.396Z,10.00
2019-02-04T12:22:38.285Z,10.90
2019-02-04T12:24:42.107Z,9.58
2019-02-04T12:26:45.924Z,9.98
2019-02-04T12:28:50.094Z,8.95
2019-02-04T12:30:54.296Z,13.18
2019-02-04T12:32:59.137Z,8.70
2019-02-04T12:35:03.014Z,11.12
2019-02-04T12:37:07.304Z,10.65
2019-02-04T12:39:12.950Z,10.28
2019-02-04T12:41:17.306Z,9.73
2019-02-04T12:43:21.481Z,9.58
2019-02-04T12:45:28.538Z,9.70
2019-02-04T12:47:32.722Z,8.68
2019-02-04T12:49:36.832Z,7.45
2019-02-04T12:51:40.781Z,8.43
2019-02-04T12:53:44.608Z,8.03
2019-02-04T12:55:48.774Z,9.53
2019-02-04T12:57:53.880Z,6.70
2019-02-04T12:59:58.087Z,8.88
2019-02-04T13:02:02.201Z,6.22
2019-02-04T13:04:06.756Z,6.60
2019-02-04T13:06:11.247Z,6.15
2019-02-04T13:08:15.784Z,4.33
2019-02-04T13:10:20.416Z,5.72
2019-02-04T13:12:24.607Z,6.58
2019-02-04T13:14:28.424Z,5.65
2019-02-04T13:16:32.214Z,6.95
2019-02-04T13:18:36.058Z,5.92
2019-02-04T13:20:40.219Z,6.67
2019-02-04T13:22:44.340Z,5.20
2019-02-04T13:24:47.872Z,6.23
2019-02-04T13:26:51.726Z,5.67
2019-02-04T13:28:55.534Z,7.53
2019-02-04T13:30:59.754Z,4.72
2019-02-04T13:33:04.162Z,4.25
2019-02-04T13:35:13.808Z,4.92
2019-02-04T13:37:17.928Z,5.10
2019-02-04T13:39:22.030Z,4.33
2019-02-04T13:41:26.133Z,4.75
2019-02-04T13:43:29.973Z,4.65
2019-02-04T13:45:34.755Z,4.55
2019-02-04T13:47:38.866Z,3.12
2019-02-04T13:49:42.980Z,4.80
2019-02-04T13:51:57.080Z,3.72
2019-02-04T13:53:52.633Z,2.75
2019-02-04T13:55:56.484Z,2.70
2019-02-04T13:58:00.354Z,4.17
2019-02-04T14:00:09.890Z,4.33
2019-02-04T14:02:13.993Z,7.53
2019-02-04T14:04:18.101Z,4.37
2019-02-04T14:06:21.921Z,3.30
2019-02-04T14:08:26.122Z,3.33
2019-02-04T14:10:32.831Z,3.65
2019-02-04T14:12:36.632Z,3.47
2019-02-04T14:14:40.486Z,3.08
2019-02-04T14:16:44.704Z,4.10
2019-02-04T14:18:48.515Z,3.83
2019-02-04T14:20:52.674Z,3.17
2019-02-04T14:22:56.950Z,3.58
2019-02-04T14:25:00.779Z,6.08
2019-02-04T14:27:04.666Z,3.62
2019-02-04T14:29:08.581Z,3.02
2019-02-04T14:31:12.877Z,4.78
2019-02-04T14:33:16.767Z,3.95
2019-02-04T14:35:20.878Z,3.87
2019-02-04T14:37:24.726Z,3.55
2019-02-04T14:39:28.907Z,3.20
2019-02-04T14:41:33.528Z,4.85
2019-02-04T14:43:37.837Z,3.67
2019-02-04T14:46:10.708Z,4.72
2019-02-04T14:48:46.115Z,3.92
2019-02-04T14:51:10.888Z,6.33
2019-02-04T14:53:21.017Z,4.47
2019-02-04T14:55:35.961Z,4.92
2019-02-04T14:57:48.387Z,3.90
2019-02-04T14:59:55.423Z,4.53
2019-02-04T15:02:20.669Z,5.00
2019-02-04T15:04:33.591Z,3.92
2019-02-04T15:06:46.332Z,4.22
2019-02-04T15:09:11.252Z,3.42
2019-02-04T15:11:24.706Z,3.12
2019-02-04T15:13:52.903Z,6.05
2019-02-04T15:16:03.067Z,4.87
2019-02-04T15:18:13.113Z,2.70
2019-02-04T15:20:23.225Z,4.03
2019-02-04T15:22:36.506Z,4.35
2019-02-04T15:24:57.691Z,3.60
2019-02-04T15:27:21.340Z,5.50
2019-02-04T15:29:28.656Z,3.62
2019-02-04T15:31:35.925Z,3.20
2019-02-04T15:33:48.862Z,2.85
2019-02-04T15:36:04.718Z,3.77
2019-02-04T15:38:26.676Z,4.33
2019-02-04T15:40:33.529Z,4.12
2019-02-04T15:42:55.554Z,3.95
2019-02-04T15:45:02.419Z,3.55
2019-02-04T15:47:15.452Z,3.77
2019-02-04T15:49:31.149Z,2.55
2019-02-04T15:51:38.331Z,4.42
2019-02-04T15:53:42.590Z,5.28
2019-02-04T15:55:46.739Z,6.15
2019-02-04T15:57:50.556Z,5.92
2019-02-04T15:59:54.661Z,3.98
2019-02-04T16:01:58.567Z,5.45
2019-02-04T16:04:05.759Z,5.55
2019-02-04T16:06:09.549Z,5.50
2019-02-04T16:08:13.796Z,5.72
2019-02-04T16:10:18.124Z,6.72
2019-02-04T16:12:22.527Z,6.05
2019-02-04T16:14:26.319Z,7.67
2019-02-04T16:16:30.517Z,6.97
2019-02-04T16:18:34.836Z,4.85
2019-02-04T16:20:38.847Z,4.65
2019-02-04T16:22:42.963Z,4.30
2019-02-04T16:24:47.157Z,6.67
2019-02-04T16:26:51.273Z,4.83
2019-02-04T16:28:55.260Z,5.00
2019-02-04T16:30:59.121Z,5.80
2019-02-04T16:33:03.282Z,6.25
2019-02-04T16:35:10.073Z,6.42
2019-02-04T16:37:14.381Z,6.10
2019-02-04T16:39:18.489Z,6.42
2019-02-04T16:41:22.469Z,7.40
2019-02-04T16:43:26.710Z,7.45
2019-02-04T16:45:30.857Z,5.08
2019-02-04T16:47:34.938Z,11.60
2019-02-04T16:49:42.039Z,11.10
2019-02-04T16:51:46.022Z,7.23
2019-02-04T16:53:51.462Z,6.05
2019-02-04T16:55:55.563Z,6.83
2019-02-04T16:57:59.585Z,7.03
2019-02-04T17:00:07.785Z,6.40
2019-02-04T17:02:11.878Z,6.40
2019-02-04T17:04:15.698Z,7.80
2019-02-04T17:06:19.535Z,6.10
2019-02-04T17:08:23.814Z,6.58
2019-02-04T17:10:28.332Z,6.60
2019-02-04T17:12:32.538Z,6.80
2019-02-04T17:14:36.646Z,6.65
2019-02-04T17:16:40.869Z,8.15
2019-02-04T17:18:44.988Z,7.12
2019-02-04T17:20:49.198Z,5.17
2019-02-04T17:22:53.402Z,8.35
2019-02-04T17:24:57.237Z,6.87
2019-02-04T17:27:01.418Z,7.30
2019-02-04T17:29:05.931Z,7.10
2019-02-04T17:31:10.277Z,6.33
2019-02-04T17:33:14.053Z,8.20
2019-02-04T17:35:18.399Z,8.58
2019-02-04T17:37:22.199Z,7.20
2019-02-04T17:39:26.391Z,9.18
2019-02-04T17:41:30.870Z,6.87
2019-02-04T17:43:36.664Z,8.08
2019-02-04T17:45:40.485Z,8.25
2019-02-04T17:47:45.595Z,7.53
2019-02-04T17:49:49.414Z,4.90
2019-02-04T17:51:53.652Z,8.00
2019-02-04T17:53:57.461Z,5.62
2019-02-04T17:56:02.297Z,8.13
2019-02-04T17:58:09.088Z,7.20
2019-02-04T18:00:20.088Z,6.92
2019-02-04T18:02:23.966Z,6.65
2019-02-04T18:04:28.197Z,7.95
2019-02-04T18:06:32.379Z,7.42
2019-02-04T18:08:38.061Z,7.07
2019-02-04T18:10:42.275Z,8.05
2019-02-04T18:12:46.236Z,7.12
2019-02-04T18:14:50.404Z,7.20
2019-02-04T18:16:54.306Z,8.80
2019-02-04T18:18:58.477Z,5.60
2019-02-04T18:21:02.730Z,6.42
2019-02-04T18:23:06.918Z,6.40
2019-02-04T18:25:16.517Z,7.45
2019-02-04T18:27:20.571Z,4.90
2019-02-04T18:29:24.670Z,6.60
2019-02-04T18:31:28.894Z,7.72
2019-02-04T18:33:32.988Z,8.20
2019-02-04T18:35:37.154Z,7.40
2019-02-04T18:37:41.546Z,6.97
2019-02-04T18:39:45.644Z,6.22
2019-02-04T18:41:49.890Z,8.40
2019-02-04T18:43:54.067Z,7.83
2019-02-04T18:45:57.959Z,7.00
2019-02-04T18:48:02.506Z,6.47
2019-02-04T18:50:09.984Z,5.95
2019-02-04T18:52:14.134Z,5.08
2019-02-04T18:54:21.404Z,5.90
2019-02-04T18:56:25.510Z,5.58
2019-02-04T18:58:29.332Z,7.62
2019-02-04T19:00:34.266Z,5.97
2019-02-04T19:02:38.468Z,5.20
2019-02-04T19:04:42.658Z,5.83
2019-02-04T19:06:48.067Z,6.47
2019-02-04T19:08:52.028Z,6.92
2019-02-04T19:10:55.902Z,8.20
2019-02-04T19:13:00.324Z,6.65
2019-02-04T19:15:06.860Z,5.47
2019-02-04T19:17:12.214Z,6.00
2019-02-04T19:19:16.348Z,5.33
2019-02-04T19:21:20.554Z,5.78
2019-02-04T19:23:26.935Z,4.90
2019-02-04T19:25:30.620Z,6.00
2019-02-04T19:27:34.439Z,6.25
2019-02-04T19:29:41.004Z,4.75
2019-02-04T19:31:46.658Z,5.05
2019-02-04T19:33:50.857Z,4.90
2019-02-04T19:35:55.063Z,9.00
2019-02-04T19:38:00.515Z,5.30
2019-02-04T19:40:07.188Z,4.97
2019-02-04T19:42:11.016Z,5.78
2019-02-04T19:44:14.835Z,4.83
2019-02-04T19:46:19.401Z,6.97
2019-02-04T19:48:23.497Z,8.00
2019-02-04T19:50:32.718Z,5.78
2019-02-04T19:52:36.532Z,6.05
2019-02-04T19:54:40.748Z,6.95
2019-02-04T19:56:44.857Z,5.45
2019-02-04T19:58:49.071Z,5.28
2019-02-04T20:00:53.282Z,6.15
2019-02-04T20:02:57.491Z,6.80
2019-02-04T20:05:03.956Z,5.90
2019-02-04T20:07:07.885Z,5.42
2019-02-04T20:09:12.696Z,5.28
2019-02-04T20:11:16.914Z,4.60
2019-02-04T20:13:20.737Z,8.18
2019-02-04T20:15:34.735Z,6.05
2019-02-04T20:17:39.043Z,5.65
2019-02-04T20:19:43.188Z,5.95
2019-02-04T20:21:47.031Z,7.25
2019-02-04T20:23:50.850Z,8.63
2019-02-04T20:25:55.010Z,7.78
2019-02-04T20:27:59.992Z,10.65
2019-02-04T20:30:05.770Z,7.97
2019-02-04T20:32:09.887Z,8.78
2019-02-04T20:34:13.992Z,6.42
2019-02-04T20:36:18.251Z,7.30
2019-02-04T20:38:22.427Z,7.78
2019-02-04T20:40:27.404Z,10.95
2019-02-04T20:42:31.565Z,5.42
2019-02-04T20:44:35.424Z,8.83
2019-02-04T20:46:39.584Z,8.68
2019-02-04T20:48:43.498Z,8.07
2019-02-04T20:50:49.852Z,8.93
2019-02-04T20:52:53.724Z,8.25
2019-02-04T20:54:57.878Z,7.87
2019-02-04T20:57:02.587Z,7.78
2019-02-04T20:59:06.707Z,7.35
2019-02-04T21:01:10.818Z,7.73
2019-02-04T21:03:15.017Z,7.15
2019-02-04T21:05:18.968Z,9.20
2019-02-04T21:07:23.135Z,8.40
2019-02-04T21:09:27.261Z,9.28
2019-02-04T21:11:31.158Z,8.83
2019-02-04T21:13:36.251Z,9.55
2019-02-04T21:15:40.315Z,7.90
2019-02-04T21:17:44.412Z,6.95
2019-02-04T21:19:48.222Z,7.60
2019-02-04T21:21:52.061Z,9.05
2019-02-04T21:23:56.234Z,11.90
2019-02-04T21:26:00.050Z,9.50
2019-02-04T21:28:04.565Z,8.95
2019-02-04T21:30:17.681Z,8.30
2019-02-04T21:32:21.887Z,10.23
2019-02-04T21:34:25.721Z,10.20
2019-02-04T21:36:29.897Z,8.35
2019-02-04T21:38:33.733Z,10.50
2019-02-04T21:40:37.921Z,8.70
2019-02-04T21:42:41.806Z,9.08
2019-02-04T21:44:45.633Z,8.55
2019-02-04T21:46:49.452Z,7.85
2019-02-04T21:48:53.263Z,8.08
2019-02-04T21:50:57.377Z,11.20
2019-02-04T21:53:01.562Z,9.18
2019-02-04T21:55:08.878Z,9.25
2019-02-04T21:57:13.056Z,8.75
2019-02-04T21:59:17.169Z,8.75
2019-02-04T22:01:21.004Z,10.00
2019-02-04T22:03:25.173Z,10.03
2019-02-04T22:05:31.415Z,9.50
2019-02-04T22:07:35.237Z,7.92
2019-02-04T22:09:39.354Z,11.65
2019-02-04T22:11:43.471Z,9.55
2019-02-04T22:13:48.074Z,8.23
2019-02-04T22:15:52.301Z,8.48
2019-02-04T22:17:56.605Z,9.13
2019-02-04T22:20:00.725Z,10.95
2019-02-04T22:22:05.536Z,8.55
2019-02-04T22:24:09.666Z,8.98
2019-02-04T22:26:13.515Z,7.97
2019-02-04T22:28:17.673Z,10.30
2019-02-04T22:30:26.936Z,8.73
2019-02-04T22:32:30.798Z,9.65
2019-02-04T22:34:36.970Z,9.53
2019-02-04T22:36:40.793Z,11.93
2019-02-04T22:38:44.921Z,11.57
2019-02-04T22:40:49.097Z,10.93
2019-02-04T22:42:53.528Z,12.63
2019-02-04T22:44:58.023Z,11.85
2019-02-04T22:47:01.838Z,14.18
2019-02-04T22:49:06.357Z,10.80
2019-02-04T22:51:10.553Z,10.28
2019-02-04T22:53:14.675Z,11.95
2019-02-04T22:55:31.578Z,10.23
2019-02-04T22:57:27.429Z,10.63
2019-02-04T22:59:31.615Z,11.75
2019-02-04T23:01:38.791Z,15.75
2019-02-04T23:03:43.011Z,12.65
2019-02-04T23:05:47.324Z,13.78
2019-02-04T23:07:51.151Z,19.07
2019-02-04T23:09:55.330Z,16.17
2019-02-04T23:11:59.541Z,15.93
2019-02-04T23:14:03.959Z,17.48
2019-02-04T23:16:08.783Z,12.93
2019-02-04T23:18:12.669Z,14.07
2019-02-04T23:20:17.519Z,12.18
2019-02-04T23:22:21.719Z,13.78
2019-02-04T23:24:25.842Z,11.22
2019-02-04T23:26:29.959Z,14.28
2019-02-04T23:28:34.085Z,12.93
2019-02-04T23:30:38.272Z,12.35
2019-02-04T23:32:42.707Z,11.93
2019-02-04T23:34:46.801Z,13.08
2019-02-04T23:36:50.912Z,12.73
2019-02-04T23:38:55.143Z,12.15
2019-02-04T23:40:58.966Z,17.87
2019-02-04T23:43:05.088Z,17.52
2019-02-04T23:45:10.662Z,15.00
2019-02-04T23:47:14.761Z,14.28
2019-02-04T23:49:21.594Z,11.48
2019-02-04T23:51:25.750Z,13.28
2019-02-04T23:53:29.737Z,13.75
2019-02-04T23:55:34.255Z,15.68
2019-02-04T23:57:38.585Z,14.80
2019-02-04T23:59:42.788Z,16.48
